Home PIREPS Pireps

Flight BEL423

  • Submitted By: Martin Witters
  • Departure Airport: Bruxelles National (EBBR)
  • Arrival Airport: Ben Gurion (LLBG)
  • Aircraft: A330-301 (OO-SFM)
  • Flight Time: 04.00
  • Date Submitted: 10/02/2018
  • Route: SPI UL607 PELIX UZ210 LIRSU UZ315 RIDAR UZ738 UNKEN INGID PODET UL603 OLOTA DISOR UL608 FSK UG18 MES UL609 ALKIS UG18 MAROS UL609 APLON UG18 LEDRA UL609 PIKOG UG18 SOLIN
  • Status: Accepted
Flight Details
Gross Revenue:
(228 load / € 0.00 per unit
€ 0.00
Fuel Cost:
(26640 fuel used @ 0 / unit)
€ 0.00

Additional Log Information:

View Log

Aircraft Used in flight is PMDG 777-2B8R Austrian Airlines (Fictional)
12:37 Brakes are On
12:43 Brakes are Released
12:44 Brakes are On
12:44 Brakes are Released
12:45 Brakes are On
12:46 Brakes are Released
12:49 Brakes are On
12:49 Brakes are Released
12:50 You Took off @ 184 Knots and Flaps at Position 3
Departure Weather
EBBR 101120Z 26009KT 9999 FEW016 05/01 Q1017 NOSIGrn
12:50 You are Airborne and your Beacons are off
12:50 You are Airborne and your Navigation Lights are off
12:50 Brakes are On
12:50 Brakes are Released
12:50 Landing Gear Up @ 201 Knots and 340 Feet
12:51 Below FL100 you need to turn on the landing lights
12:52 Below 10000 feet you are not allowed to go over 250 knots
12:54 Above FL100 you need to switch of the landing lights
12:54 Above FL100 you need to switch of the landing lights
16:34 Landing Gear Down @ 223 Knots and 2700 Feet
16:37 You Landed @ 126 Knots and with -150 Vertical Speed
Arrival Weather
LLBG 101520Z VRB03KT CAVOK 22/11 Q1008 NOSIGrn
16:37 Paused
16:37 Unpaused
16:37 Brakes are On
16:37 Brakes are Released
16:37 Paused
16:38 Brakes are On
16:38 Brakes are Released
16:38 Brakes are On
16:38 Brakes are Released
16:39 Brakes are On
16:39 Unpaused
16:40 Brussels Bel-Track1.0.1.2

Comments

Commenter Comment
Martin Witters Brussels Airlines Shorthaul tour leg 11

Route Map

Corporate About Us Our Team Vacancies Information Fleet Route Network Rules and Regulations Operations Flight Schedules Event Center Tours Partners IVAO Vatsim Acars dev FSCB

fb Users Online No pilots online!
0 Pilot(s) and 193 Guest(s) Online
CMS by phpVMS - Design by Crazycreatives.com - Copyright © 2018 - Brussels Airlines Virtual